Time;durP1;ratioP1;P1;durP2;ratioP2;P2;SDS_P1;SDS_P2;PMS_P1;PMS_P2;Temp;Humidity;BMP_temperature;BMP_pressure;BME280_temperature;BME280_humidity;BME280_pressure;Samples;Min_cycle;Max_cycle;Signal;HPM_P1;HPM_P2
2022/07/07 00:01:09;;;;;;;0.80;0.70;;;16.40;99.90;;;;;;5013937;28;20531;-70
2022/07/07 00:03:34;;;;;;;0.67;0.67;;;16.50;99.90;;;;;;5014128;28;20263;-70
2022/07/07 00:06:01;;;;;;;2.50;0.80;;;16.40;99.90;;;;;;5013673;28;20185;-71
2022/07/07 00:08:26;;;;;;;1.37;0.83;;;16.50;99.90;;;;;;5014089;28;20538;-71
2022/07/07 00:10:52;;;;;;;3.13;1.00;;;16.50;99.90;;;;;;5014533;28;20415;-72
2022/07/07 00:13:18;;;;;;;1.07;0.90;;;16.50;99.90;;;;;;5014317;28;20651;-70
2022/07/07 00:15:45;;;;;;;0.80;0.70;;;16.50;99.90;;;;;;5013887;28;20197;-71
2022/07/07 00:18:11;;;;;;;1.90;1.07;;;16.50;99.90;;;;;;5014252;28;20775;-71
2022/07/07 00:20:37;;;;;;;1.00;0.80;;;16.50;99.90;;;;;;5014009;28;20816;-70
2022/07/07 00:23:03;;;;;;;0.80;0.80;;;16.50;99.90;;;;;;5013775;28;20434;-70
2022/07/07 00:25:28;;;;;;;2.00;1.13;;;16.50;99.90;;;;;;5013948;28;20690;-69
2022/07/07 00:27:54;;;;;;;1.00;0.83;;;16.50;99.90;;;;;;5013849;28;20168;-70
2022/07/07 00:30:19;;;;;;;1.70;0.80;;;16.60;99.90;;;;;;5014004;28;20188;-69
2022/07/07 00:32:45;;;;;;;1.67;0.60;;;16.60;99.90;;;;;;5014335;28;20199;-69
2022/07/07 00:35:11;;;;;;;4.50;0.87;;;16.50;99.90;;;;;;5014114;28;20694;-69
2022/07/07 00:37:36;;;;;;;1.57;0.83;;;16.60;99.90;;;;;;5014431;28;20200;-70
2022/07/07 00:40:02;;;;;;;0.77;0.77;;;16.60;99.90;;;;;;5015126;28;20167;-70
2022/07/07 00:42:28;;;;;;;1.13;1.03;;;16.60;99.90;;;;;;5014172;28;20184;-70
2022/07/07 00:44:54;;;;;;;3.10;0.97;;;16.60;99.90;;;;;;5012914;28;20429;-70
2022/07/07 00:47:19;;;;;;;1.10;0.77;;;16.60;99.90;;;;;;5013556;28;20260;-70
2022/07/07 00:49:45;;;;;;;1.13;0.80;;;16.60;99.90;;;;;;5013302;28;20214;-69
2022/07/07 00:52:11;;;;;;;1.63;1.30;;;16.60;99.90;;;;;;5013285;28;20166;-70
2022/07/07 00:54:37;;;;;;;2.10;1.33;;;16.60;99.90;;;;;;5013058;28;20258;-69
2022/07/07 00:57:04;;;;;;;1.50;0.90;;;16.60;99.90;;;;;;5013204;28;20777;-69
2022/07/07 00:59:31;;;;;;;3.60;1.50;;;16.60;99.90;;;;;;5012849;28;20252;-70
2022/07/07 01:01:57;;;;;;;1.07;0.90;;;16.60;99.90;;;;;;5012976;28;20499;-69
2022/07/07 01:04:23;;;;;;;1.33;0.90;;;16.60;99.90;;;;;;5012614;28;20813;-69
2022/07/07 01:06:49;;;;;;;1.70;0.77;;;16.60;99.90;;;;;;5011254;28;20504;-70
2022/07/07 01:09:14;;;;;;;0.80;0.70;;;16.60;99.90;;;;;;5012792;28;20196;-70
2022/07/07 01:11:48;;;;;;;1.37;0.70;;;16.60;99.90;;;;;;5010086;28;20250;-70
2022/07/07 01:14:14;;;;;;;2.40;1.00;;;16.60;99.90;;;;;;5012792;28;20643;-70
2022/07/07 01:16:40;;;;;;;2.07;0.87;;;16.40;99.90;;;;;;5012524;28;20458;-68
2022/07/07 01:19:06;;;;;;;1.57;0.70;;;16.40;99.90;;;;;;5012959;28;20427;-70
2022/07/07 01:21:38;;;;;;;1.90;0.77;;;16.20;99.90;;;;;;5013225;28;20181;-70
2022/07/07 01:24:04;;;;;;;0.80;0.80;;;16.10;99.90;;;;;;5012669;28;20620;-69
2022/07/07 01:26:30;;;;;;;3.23;1.07;;;16.00;99.90;;;;;;5012218;28;20447;-70
2022/07/07 01:28:55;;;;;;;1.30;0.90;;;15.90;99.90;;;;;;5012665;28;20913;-70
2022/07/07 01:31:21;;;;;;;0.90;0.80;;;15.90;99.90;;;;;;5012412;28;20172;-70
2022/07/07 01:33:46;;;;;;;1.03;0.97;;;15.70;99.90;;;;;;5012590;28;20829;-70
2022/07/07 01:36:13;;;;;;;2.77;0.80;;;15.70;99.90;;;;;;5012193;28;20211;-70
2022/07/07 01:38:38;;;;;;;2.40;0.80;;;15.60;99.90;;;;;;5012319;28;20196;-70
2022/07/07 01:41:04;;;;;;;0.80;0.60;;;15.40;99.90;;;;;;5012420;28;20446;-69
2022/07/07 01:43:29;;;;;;;2.27;1.10;;;15.40;99.90;;;;;;5012083;28;20754;-70
2022/07/07 01:45:55;;;;;;;0.80;0.80;;;15.20;99.90;;;;;;5011718;28;20556;-69
2022/07/07 01:48:20;;;;;;;0.90;0.90;;;15.20;99.90;;;;;;5011974;28;20170;-70
2022/07/07 01:50:46;;;;;;;1.00;0.90;;;15.10;99.90;;;;;;5011794;28;20244;-70
2022/07/07 01:53:11;;;;;;;0.73;0.73;;;15.10;99.90;;;;;;5011844;28;20173;-70
2022/07/07 01:55:37;;;;;;;1.43;0.90;;;15.00;99.90;;;;;;5011853;28;20562;-69
2022/07/07 01:58:02;;;;;;;0.70;0.70;;;15.00;99.90;;;;;;5012034;28;20632;-69
2022/07/07 02:00:28;;;;;;;1.80;1.10;;;14.90;99.90;;;;;;5011967;28;20602;-69
2022/07/07 02:02:53;;;;;;;1.00;0.70;;;14.90;99.90;;;;;;5011417;28;20718;-69
2022/07/07 02:05:19;;;;;;;0.80;0.80;;;14.80;99.90;;;;;;5011380;28;20712;-69
2022/07/07 02:07:47;;;;;;;1.67;0.80;;;14.80;99.90;;;;;;5012156;28;20720;-70
2022/07/07 02:10:12;;;;;;;1.93;1.03;;;14.80;99.90;;;;;;5011697;28;20164;-70
2022/07/07 02:12:58;;;;;;;4.00;1.10;;;14.70;99.90;;;;;;5011644;28;20419;-70
2022/07/07 02:15:23;;;;;;;0.90;0.80;;;14.70;99.90;;;;;;5011195;28;20461;-69
2022/07/07 02:17:49;;;;;;;0.90;0.90;;;14.60;99.90;;;;;;5011552;28;20168;-69
2022/07/07 02:20:14;;;;;;;1.03;0.90;;;14.60;99.90;;;;;;5011408;28;20643;-69
2022/07/07 02:22:40;;;;;;;3.10;1.30;;;14.50;99.90;;;;;;5011565;28;20169;-70
2022/07/07 02:25:06;;;;;;;4.60;1.50;;;14.50;99.90;;;;;;5011291;28;20236;-70
2022/07/07 02:27:31;;;;;;;2.87;1.70;;;14.30;99.90;;;;;;5012315;28;20172;-69
2022/07/07 02:29:57;;;;;;;2.10;1.87;;;14.30;99.90;;;;;;5011747;28;20169;-70
2022/07/07 02:32:22;;;;;;;7.07;1.33;;;14.30;99.90;;;;;;5011665;28;20183;-70
2022/07/07 02:34:48;;;;;;;2.90;1.77;;;14.30;99.90;;;;;;5009832;28;20270;-70
2022/07/07 02:37:13;;;;;;;1.93;1.60;;;14.30;99.90;;;;;;5011384;28;20196;-70
2022/07/07 02:39:39;;;;;;;3.20;1.60;;;14.30;99.90;;;;;;5011688;28;20608;-70
2022/07/07 02:42:04;;;;;;;1.50;1.20;;;14.30;99.90;;;;;;5011726;28;20570;-71
2022/07/07 02:44:30;;;;;;;2.03;1.10;;;14.20;99.90;;;;;;5011769;28;20619;-70
2022/07/07 02:46:55;;;;;;;0.90;0.90;;;14.20;99.90;;;;;;5012055;28;20226;-71
2022/07/07 02:49:21;;;;;;;4.60;1.30;;;14.20;99.90;;;;;;5011978;28;20168;-71
2022/07/07 02:51:46;;;;;;;3.20;1.20;;;14.20;99.90;;;;;;5011354;28;20183;-70
2022/07/07 02:54:12;;;;;;;3.23;1.20;;;14.10;99.90;;;;;;5011524;28;20183;-70
2022/07/07 02:56:38;;;;;;;2.87;1.33;;;14.00;99.90;;;;;;5011094;28;20196;-69
2022/07/07 02:59:04;;;;;;;1.20;0.93;;;14.00;99.90;;;;;;5011584;28;20643;-71
2022/07/07 03:01:30;;;;;;;2.90;1.00;;;14.00;99.90;;;;;;5011483;28;20498;-70
2022/07/07 03:03:55;;;;;;;2.33;1.40;;;14.10;99.90;;;;;;5011474;28;20172;-71
2022/07/07 03:06:21;;;;;;;6.00;1.33;;;14.10;99.90;;;;;;5011349;28;20184;-70
2022/07/07 03:08:47;;;;;;;1.20;1.00;;;14.10;99.90;;;;;;5011386;28;20190;-70
2022/07/07 03:11:12;;;;;;;1.20;1.10;;;14.10;99.90;;;;;;5011434;28;20179;-70
2022/07/07 03:13:38;;;;;;;6.87;1.40;;;14.10;99.90;;;;;;5011747;28;20498;-70
2022/07/07 03:16:04;;;;;;;1.50;1.10;;;14.00;99.90;;;;;;5014792;28;20196;-70
2022/07/07 03:18:29;;;;;;;1.10;1.00;;;13.90;99.90;;;;;;5015559;28;20192;-70
2022/07/07 03:20:55;;;;;;;1.30;1.20;;;13.90;99.90;;;;;;5015207;28;20420;-70
2022/07/07 03:23:20;;;;;;;2.00;1.30;;;13.90;99.90;;;;;;5015196;28;20172;-70
2022/07/07 03:25:46;;;;;;;1.67;1.30;;;13.90;99.90;;;;;;5014999;28;20211;-70
2022/07/07 03:28:11;;;;;;;1.23;1.13;;;14.00;99.90;;;;;;5015180;28;20179;-70
2022/07/07 03:30:37;;;;;;;1.80;1.60;;;13.90;99.90;;;;;;5015073;28;20168;-71
2022/07/07 03:33:04;;;;;;;1.90;1.57;;;13.90;99.90;;;;;;5014494;28;20230;-70
2022/07/07 03:35:29;;;;;;;2.30;1.80;;;13.90;99.90;;;;;;5014718;28;20605;-70
2022/07/07 03:37:55;;;;;;;1.97;1.87;;;13.80;99.90;;;;;;5014990;28;20566;-70
2022/07/07 03:40:20;;;;;;;1.93;1.30;;;13.80;99.90;;;;;;5015004;28;20485;-70
2022/07/07 03:42:46;;;;;;;2.07;1.77;;;13.90;99.90;;;;;;5014789;28;20223;-71
2022/07/07 03:45:12;;;;;;;1.43;1.30;;;13.80;99.90;;;;;;5014495;28;20192;-70
2022/07/07 03:47:38;;;;;;;2.90;1.50;;;13.90;99.90;;;;;;5014574;28;20202;-70
2022/07/07 03:50:03;;;;;;;2.03;1.90;;;13.90;99.90;;;;;;5014861;28;20898;-70
2022/07/07 03:52:29;;;;;;;1.70;1.60;;;13.90;99.90;;;;;;5014802;28;20192;-71
2022/07/07 03:54:55;;;;;;;2.20;1.47;;;13.90;99.90;;;;;;5014239;28;20188;-70
2022/07/07 03:57:20;;;;;;;3.40;1.70;;;13.90;99.90;;;;;;5014623;28;20168;-70
2022/07/07 03:59:46;;;;;;;3.67;1.53;;;13.90;99.90;;;;;;5014466;28;20211;-70
2022/07/07 04:02:11;;;;;;;1.53;1.43;;;13.90;99.90;;;;;;5014485;28;20168;-69
2022/07/07 04:04:37;;;;;;;1.80;1.40;;;13.80;99.90;;;;;;5014386;28;20165;-70
2022/07/07 04:07:03;;;;;;;2.30;1.80;;;13.90;99.90;;;;;;5014534;28;20184;-70
2022/07/07 04:09:28;;;;;;;1.63;1.30;;;13.80;99.90;;;;;;5014490;28;20172;-72
2022/07/07 04:11:54;;;;;;;2.30;2.07;;;13.80;99.90;;;;;;5014452;28;20172;-69
2022/07/07 04:14:19;;;;;;;1.37;1.27;;;13.80;99.90;;;;;;5014304;28;20635;-70
2022/07/07 04:16:45;;;;;;;3.83;2.37;;;13.80;99.90;;;;;;5014037;28;20200;-69
2022/07/07 04:19:10;;;;;;;1.70;1.60;;;13.80;99.90;;;;;;5014209;28;20172;-70
2022/07/07 04:21:36;;;;;;;2.53;1.77;;;13.60;99.90;;;;;;5013952;28;20243;-70
2022/07/07 04:24:02;;;;;;;1.50;1.40;;;13.60;99.90;;;;;;5014032;28;20358;-70
2022/07/07 04:26:27;;;;;;;2.70;1.40;;;13.60;99.90;;;;;;5013019;28;20203;-70
2022/07/07 04:28:53;;;;;;;1.63;1.50;;;13.60;99.90;;;;;;5013562;28;20173;-69
2022/07/07 04:31:18;;;;;;;2.20;1.40;;;13.50;99.90;;;;;;5013637;28;20172;-70
2022/07/07 04:33:44;;;;;;;2.00;1.63;;;13.50;99.90;;;;;;5013761;28;20207;-70
2022/07/07 04:36:11;;;;;;;3.80;2.30;;;13.40;99.90;;;;;;5013965;28;20566;-70
2022/07/07 04:38:37;;;;;;;3.03;2.40;;;13.50;99.90;;;;;;5014095;28;20180;-70
2022/07/07 04:41:02;;;;;;;2.53;2.23;;;13.50;99.90;;;;;;5014068;28;20754;-70
2022/07/07 04:43:28;;;;;;;2.53;1.70;;;13.50;99.90;;;;;;5014251;28;20251;-71
2022/07/07 04:45:53;;;;;;;1.87;1.70;;;13.50;99.90;;;;;;5013712;28;20192;-70
2022/07/07 04:48:19;;;;;;;1.90;1.80;;;13.60;99.90;;;;;;5013819;28;20176;-70
2022/07/07 04:50:44;;;;;;;3.27;2.70;;;13.60;99.90;;;;;;5013780;28;20579;-69
2022/07/07 04:53:10;;;;;;;1.80;1.63;;;13.60;99.90;;;;;;5013624;28;20184;-71
2022/07/07 04:55:35;;;;;;;2.63;2.43;;;13.60;99.90;;;;;;5013799;28;20254;-70
2022/07/07 04:58:01;;;;;;;2.20;2.00;;;13.60;99.90;;;;;;5013670;28;20183;-71
2022/07/07 05:00:26;;;;;;;2.17;1.97;;;13.70;99.90;;;;;;5013478;28;20176;-70
2022/07/07 05:02:52;;;;;;;2.47;1.93;;;13.70;99.90;;;;;;5013625;28;20686;-70
2022/07/07 05:05:17;;;;;;;3.10;2.03;;;13.70;99.90;;;;;;5015183;28;20188;-69
2022/07/07 05:07:43;;;;;;;2.27;2.07;;;13.70;99.90;;;;;;5013793;28;20259;-70
2022/07/07 05:10:09;;;;;;;2.53;1.90;;;13.80;99.90;;;;;;5013452;28;20639;-70
2022/07/07 05:12:34;;;;;;;3.93;2.03;;;13.80;99.90;;;;;;5013039;28;20176;-70
2022/07/07 05:15:00;;;;;;;2.33;2.00;;;13.80;99.90;;;;;;5012514;28;20199;-70
2022/07/07 05:17:25;;;;;;;2.03;1.93;;;13.80;99.90;;;;;;5013284;28;20246;-70
2022/07/07 05:19:51;;;;;;;3.60;1.80;;;13.70;99.90;;;;;;5012962;28;20199;-69
2022/07/07 05:22:16;;;;;;;5.33;2.60;;;13.80;99.90;;;;;;5012909;28;20168;-69
2022/07/07 05:24:42;;;;;;;1.93;1.83;;;13.80;99.90;;;;;;5012519;28;20207;-70
2022/07/07 05:27:07;;;;;;;2.80;2.50;;;13.90;99.90;;;;;;5013262;28;20172;-71
2022/07/07 05:29:33;;;;;;;2.93;2.07;;;13.90;99.90;;;;;;5012520;28;20212;-70
2022/07/07 05:31:59;;;;;;;3.53;2.33;;;13.80;99.90;;;;;;5012916;28;20569;-70
2022/07/07 05:34:24;;;;;;;2.10;1.70;;;13.70;99.90;;;;;;5012845;28;20607;-70
2022/07/07 05:36:50;;;;;;;1.67;1.53;;;13.90;99.90;;;;;;5010715;28;20692;-71
2022/07/07 05:39:15;;;;;;;2.00;1.87;;;13.90;99.90;;;;;;5013045;28;20230;-70
2022/07/07 05:41:41;;;;;;;2.80;2.33;;;14.00;99.90;;;;;;5012488;28;20183;-69
2022/07/07 05:44:07;;;;;;;2.10;1.90;;;13.90;99.90;;;;;;5012697;28;20172;-70
2022/07/07 05:46:33;;;;;;;2.10;1.57;;;14.00;99.90;;;;;;5012388;28;20489;-70
2022/07/07 05:48:59;;;;;;;1.93;1.60;;;13.90;99.90;;;;;;5012732;28;20260;-69
2022/07/07 05:51:24;;;;;;;1.73;1.63;;;13.90;99.90;;;;;;5012337;28;20451;-70
2022/07/07 05:53:50;;;;;;;1.77;1.67;;;13.90;99.90;;;;;;5012441;28;20180;-70
2022/07/07 05:56:15;;;;;;;2.37;1.80;;;14.00;99.90;;;;;;5011930;28;20200;-70
2022/07/07 05:58:41;;;;;;;2.33;1.73;;;14.00;99.90;;;;;;5012252;28;20175;-71
2022/07/07 06:01:06;;;;;;;1.67;1.57;;;14.10;99.90;;;;;;5012427;28;20184;-70
2022/07/07 06:03:32;;;;;;;3.50;1.77;;;14.10;99.90;;;;;;5012409;28;20187;-70
2022/07/07 06:05:57;;;;;;;2.30;2.00;;;14.20;99.90;;;;;;5012292;28;20578;-70
2022/07/07 06:08:23;;;;;;;2.17;2.00;;;14.10;99.90;;;;;;5012115;28;20175;-70
2022/07/07 06:10:49;;;;;;;2.03;1.83;;;14.00;99.90;;;;;;5011818;28;20178;-70
2022/07/07 06:13:14;;;;;;;1.97;1.70;;;13.90;99.90;;;;;;5010342;28;20268;-69
2022/07/07 06:15:40;;;;;;;2.90;1.70;;;13.90;99.90;;;;;;5011363;28;20215;-70
2022/07/07 06:18:05;;;;;;;1.47;1.37;;;13.90;99.90;;;;;;5012702;28;20204;-71
2022/07/07 06:20:32;;;;;;;2.23;1.87;;;14.00;99.90;;;;;;5012136;28;20654;-71
2022/07/07 06:22:58;;;;;;;8.40;1.73;;;14.00;99.90;;;;;;5011832;28;20173;-70
2022/07/07 06:25:26;;;;;;;5.00;2.40;;;14.00;99.90;;;;;;5035949;23;20457;-69
2022/07/07 06:27:51;;;;;;;2.90;2.37;;;14.00;99.90;;;;;;5031057;28;20429;-69
2022/07/07 06:30:17;;;;;;;2.00;1.80;;;14.10;99.90;;;;;;5031812;28;20406;-71
2022/07/07 06:32:42;;;;;;;2.77;2.53;;;14.10;99.90;;;;;;5031884;28;20175;-69
2022/07/07 06:35:08;;;;;;;3.03;1.97;;;14.10;99.90;;;;;;5031808;28;20534;-69
2022/07/07 06:37:34;;;;;;;2.33;2.13;;;14.10;99.90;;;;;;5031993;28;20198;-68
2022/07/07 06:40:00;;;;;;;3.73;2.67;;;14.00;99.90;;;;;;5032399;28;20406;-69
2022/07/07 06:42:26;;;;;;;3.50;2.50;;;14.10;99.90;;;;;;5032222;28;20641;-69
2022/07/07 06:44:52;;;;;;;2.20;2.00;;;14.10;99.90;;;;;;5032146;28;20409;-69
2022/07/07 06:47:17;;;;;;;2.60;2.37;;;14.10;99.90;;;;;;5031905;28;20673;-70
2022/07/07 06:49:43;;;;;;;1.80;1.70;;;14.10;99.90;;;;;;5035894;28;20502;-70
2022/07/07 06:52:09;;;;;;;2.07;1.87;;;14.10;99.90;;;;;;5034480;28;20602;-69
2022/07/07 06:54:35;;;;;;;2.10;1.90;;;14.20;99.90;;;;;;5035580;28;20550;-69
2022/07/07 06:57:00;;;;;;;3.90;1.90;;;14.20;99.90;;;;;;5036137;28;20453;-69
2022/07/07 06:59:26;;;;;;;2.53;2.00;;;14.30;99.90;;;;;;5036077;28;20178;-69
2022/07/07 07:01:52;;;;;;;2.37;2.23;;;14.10;99.90;;;;;;5035862;28;20160;-69
2022/07/07 07:04:17;;;;;;;4.43;2.20;;;14.10;99.90;;;;;;5037182;28;20175;-70
2022/07/07 07:06:44;;;;;;;9.03;2.60;;;14.20;99.90;;;;;;5036679;28;20609;-69
2022/07/07 07:09:10;;;;;;;1.50;1.40;;;14.30;99.90;;;;;;5036377;28;20176;-69
2022/07/07 07:11:36;;;;;;;2.73;1.93;;;14.20;99.90;;;;;;5035875;28;20406;-69
2022/07/07 07:14:03;;;;;;;2.17;2.03;;;14.30;99.90;;;;;;5035895;28;20253;-69
2022/07/07 07:16:29;;;;;;;1.97;1.87;;;14.40;99.90;;;;;;5035934;28;20457;-69
2022/07/07 07:18:54;;;;;;;3.03;1.70;;;14.50;99.90;;;;;;5036289;28;20409;-69
2022/07/07 07:21:20;;;;;;;2.53;2.00;;;14.60;99.90;;;;;;5041951;28;20413;-69
2022/07/07 07:23:46;;;;;;;2.10;1.90;;;14.60;99.90;;;;;;5038529;28;20168;-69
2022/07/07 07:26:12;;;;;;;2.23;1.87;;;14.60;99.90;;;;;;5035093;28;20709;-69
2022/07/07 07:28:38;;;;;;;1.80;1.70;;;14.80;99.90;;;;;;5035325;28;20182;-69
2022/07/07 07:31:04;;;;;;;1.80;1.70;;;14.80;99.90;;;;;;5036284;28;20402;-69
2022/07/07 07:33:30;;;;;;;2.00;1.90;;;14.80;99.90;;;;;;5037860;28;20222;-69
2022/07/07 07:35:56;;;;;;;2.80;1.80;;;15.00;99.90;;;;;;5037728;28;20458;-69
2022/07/07 07:38:22;;;;;;;1.63;1.53;;;14.90;99.90;;;;;;5036187;28;20410;-69
2022/07/07 07:40:48;;;;;;;3.00;2.20;;;15.00;99.90;;;;;;5035334;28;20422;-69
2022/07/07 07:43:13;;;;;;;1.77;1.67;;;15.10;99.90;;;;;;5035385;28;20229;-69
2022/07/07 07:45:39;;;;;;;1.60;1.50;;;15.20;99.90;;;;;;5034948;28;20216;-68
2022/07/07 07:48:05;;;;;;;2.37;2.17;;;15.30;99.90;;;;;;5035084;28;20176;-68
2022/07/07 07:50:32;;;;;;;2.10;1.93;;;15.10;99.90;;;;;;5035526;28;20229;-69
2022/07/07 07:52:58;;;;;;;1.37;1.27;;;15.10;99.90;;;;;;5035536;28;20415;-69
2022/07/07 07:55:25;;;;;;;1.30;1.20;;;15.20;99.90;;;;;;5035968;28;20449;-70
2022/07/07 07:57:51;;;;;;;5.90;2.17;;;15.20;99.90;;;;;;5035863;28;20881;-67
2022/07/07 08:00:19;;;;;;;1.80;1.70;;;15.30;99.90;;;;;;5034466;28;20402;-68
2022/07/07 08:02:46;;;;;;;1.63;1.53;;;15.30;99.90;;;;;;5034931;28;20402;-68
2022/07/07 08:05:12;;;;;;;2.17;1.97;;;15.50;99.90;;;;;;5034549;28;20399;-69
2022/07/07 08:07:39;;;;;;;2.43;2.23;;;15.60;99.90;;;;;;5034947;28;20814;-69
2022/07/07 08:10:05;;;;;;;3.00;1.87;;;15.70;99.90;;;;;;5034766;28;20167;-68
2022/07/07 08:12:31;;;;;;;1.90;1.80;;;15.70;99.90;;;;;;5034630;28;20399;-68
2022/07/07 08:14:57;;;;;;;2.80;1.80;;;15.80;99.90;;;;;;5034436;28;20391;-69
2022/07/07 08:17:23;;;;;;;1.80;1.60;;;15.90;99.90;;;;;;5034489;28;20239;-69
2022/07/07 08:19:48;;;;;;;1.93;1.77;;;15.90;99.90;;;;;;5034448;28;20171;-68
2022/07/07 08:22:14;;;;;;;1.33;1.23;;;16.00;99.90;;;;;;5034044;28;20176;-69
2022/07/07 08:24:40;;;;;;;1.60;1.50;;;16.00;99.90;;;;;;5034405;28;20483;-69
2022/07/07 08:27:06;;;;;;;2.70;2.50;;;15.80;99.90;;;;;;5034009;28;20303;-69
2022/07/07 08:29:31;;;;;;;1.77;1.60;;;15.90;99.90;;;;;;5034724;28;20243;-69
2022/07/07 08:31:57;;;;;;;1.83;1.73;;;16.10;99.90;;;;;;5034553;28;20178;-70
2022/07/07 08:34:23;;;;;;;2.03;1.83;;;16.10;99.90;;;;;;5034016;28;20165;-69
2022/07/07 08:36:49;;;;;;;1.70;1.30;;;16.10;99.90;;;;;;5033589;28;20217;-68
2022/07/07 08:39:14;;;;;;;2.03;1.80;;;16.30;99.90;;;;;;5033946;28;20169;-68
2022/07/07 08:41:40;;;;;;;2.00;1.90;;;16.40;99.90;;;;;;5034058;28;20417;-69
2022/07/07 08:44:06;;;;;;;1.50;1.40;;;16.40;99.90;;;;;;5033685;28;20177;-69
2022/07/07 08:46:32;;;;;;;1.60;1.50;;;16.20;99.90;;;;;;5033594;28;20458;-69
2022/07/07 08:48:58;;;;;;;1.73;1.63;;;16.00;99.90;;;;;;5034204;28;20408;-70
2022/07/07 08:51:25;;;;;;;1.90;1.80;;;16.10;99.90;;;;;;5033800;28;20172;-69
2022/07/07 08:53:51;;;;;;;1.47;1.37;;;16.00;99.90;;;;;;5033381;28;20466;-69
2022/07/07 08:56:18;;;;;;;2.30;1.33;;;16.00;99.90;;;;;;5033434;28;20495;-69
2022/07/07 08:58:44;;;;;;;1.70;1.60;;;16.00;99.90;;;;;;5033861;28;20411;-69
2022/07/07 09:01:10;;;;;;;1.87;1.77;;;16.10;99.90;;;;;;5033525;28;20901;-69
2022/07/07 09:03:36;;;;;;;2.07;1.63;;;16.30;99.90;;;;;;5033713;28;20406;-69
2022/07/07 09:06:02;;;;;;;2.30;2.10;;;16.10;99.90;;;;;;5033477;28;20279;-69
2022/07/07 09:08:30;;;;;;;2.13;1.60;;;16.10;99.90;;;;;;5036647;28;20180;-69
2022/07/07 09:10:56;;;;;;;1.33;1.23;;;16.30;99.90;;;;;;5036615;28;20413;-69
2022/07/07 09:13:30;;;;;;;1.50;1.40;;;16.20;99.90;;;;;;5033265;28;20414;-69
2022/07/07 09:16:02;;;;;;;2.03;1.40;;;16.20;99.90;;;;;;5033533;28;20875;-70
2022/07/07 09:18:33;;;;;;;1.60;1.50;;;16.20;99.90;;;;;;5034245;28;20984;-68
2022/07/07 09:20:59;;;;;;;2.33;2.13;;;16.30;99.90;;;;;;5033722;28;20399;-68
2022/07/07 09:23:25;;;;;;;1.40;1.30;;;16.20;99.90;;;;;;5035143;28;20403;-68
2022/07/07 09:25:51;;;;;;;2.00;1.90;;;16.60;99.90;;;;;;5034918;28;20451;-68
2022/07/07 09:28:16;;;;;;;3.17;1.93;;;16.40;99.90;;;;;;5034002;28;20180;-68
2022/07/07 09:30:45;;;;;;;1.80;1.70;;;16.70;99.90;;;;;;5033154;28;20188;-68
2022/07/07 09:33:12;;;;;;;2.10;1.90;;;16.30;99.90;;;;;;5032951;28;20249;-68
2022/07/07 09:38:28;;;;;;;1.63;1.50;;;16.50;99.90;;;;;;5033243;28;20494;-68
2022/07/07 09:41:01;;;;;;;1.70;1.60;;;16.40;99.90;;;;;;5032870;28;20522;-68
2022/07/07 09:43:28;;;;;;;2.20;2.10;;;16.30;99.90;;;;;;5032416;28;20411;-68
2022/07/07 09:46:24;;;;;;;2.80;2.20;;;16.50;99.90;;;;;;5032141;28;20428;-68
2022/07/07 09:48:53;;;;;;;2.17;1.83;;;16.60;99.90;;;;;;5026981;28;20410;-68
2022/07/07 09:51:26;;;;;;;2.70;2.33;;;16.50;99.90;;;;;;5032527;28;20416;-68
2022/07/07 09:54:07;;;;;;;1.90;1.80;;;16.60;99.90;;;;;;5032271;28;20490;-68
2022/07/07 09:56:42;;;;;;;1.83;1.70;;;16.50;99.90;;;;;;5032583;28;20826;-69
2022/07/07 09:59:10;;;;;;;2.40;2.20;;;16.60;99.90;;;;;;5032368;28;20397;-69
2022/07/07 10:01:37;;;;;;;5.00;1.90;;;16.80;99.90;;;;;;5032254;28;20406;-69
2022/07/07 10:04:06;;;;;;;2.23;2.00;;;16.50;99.90;;;;;;5031956;28;20428;-68
2022/07/07 10:06:35;;;;;;;1.90;1.80;;;16.50;99.90;;;;;;5031933;28;20451;-69
2022/07/07 10:09:02;;;;;;;1.80;1.70;;;16.50;99.90;;;;;;5032568;28;20797;-69
2022/07/07 10:11:49;;;;;;;2.43;2.27;;;16.80;99.90;;;;;;5033189;28;20419;-69
2022/07/07 10:14:23;;;;;;;1.83;1.73;;;16.90;99.90;;;;;;5033704;28;20772;-69
2022/07/07 10:16:51;;;;;;;2.00;1.90;;;16.80;99.90;;;;;;5032898;28;20482;-69
2022/07/07 10:19:22;;;;;;;1.97;1.87;;;16.70;99.90;;;;;;5032414;28;20823;-69
2022/07/07 10:21:50;;;;;;;1.93;1.83;;;16.90;99.90;;;;;;5031959;28;20399;-69
2022/07/07 10:24:22;;;;;;;2.10;2.00;;;17.20;99.90;;;;;;5031475;28;20458;-69
2022/07/07 10:26:59;;;;;;;2.50;2.30;;;17.30;99.90;;;;;;5031711;28;21026;-69
2022/07/07 10:29:45;;;;;;;3.23;2.53;;;17.30;99.90;;;;;;5031871;28;20819;-69
2022/07/07 10:32:16;;;;;;;2.50;2.30;;;17.20;99.90;;;;;;5031760;28;20405;-69
2022/07/07 10:34:53;;;;;;;2.30;2.00;;;17.00;99.90;;;;;;5031560;28;20441;-69
2022/07/07 10:37:20;;;;;;;2.20;2.00;;;17.00;99.90;;;;;;5031570;28;20452;-69
2022/07/07 10:39:56;;;;;;;1.93;1.83;;;17.30;99.90;;;;;;5031783;28;20408;-69
2022/07/07 10:43:03;;;;;;;2.10;2.00;;;17.30;99.90;;;;;;5031802;28;20444;-69
2022/07/07 10:45:29;;;;;;;1.97;1.87;;;17.50;99.90;;;;;;5014025;28;20427;-69
2022/07/07 10:47:55;;;;;;;2.60;2.40;;;17.50;99.90;;;;;;5032508;28;20394;-68
2022/07/07 10:50:29;;;;;;;2.33;2.20;;;17.40;99.90;;;;;;5032624;28;20416;-69
2022/07/07 10:52:56;;;;;;;1.93;1.83;;;17.30;99.90;;;;;;5033907;28;20177;-69
2022/07/07 10:55:55;;;;;;;2.63;2.40;;;17.30;99.90;;;;;;5035511;28;20408;-69
2022/07/07 10:58:51;;;;;;;2.37;2.17;;;17.30;99.90;;;;;;5034389;28;20402;-69
2022/07/07 11:01:17;;;;;;;2.73;2.53;;;17.20;99.90;;;;;;5031900;28;20828;-68
2022/07/07 11:03:43;;;;;;;2.80;2.60;;;17.30;99.90;;;;;;5032152;28;20403;-69
2022/07/07 11:06:08;;;;;;;3.20;2.50;;;17.10;99.90;;;;;;5031896;28;20194;-69
2022/07/07 11:08:41;;;;;;;3.73;3.50;;;17.20;99.90;;;;;;5032276;28;20204;-69
2022/07/07 11:11:07;;;;;;;2.77;2.57;;;17.40;99.90;;;;;;5031857;28;20186;-69
2022/07/07 11:13:38;;;;;;;2.93;2.67;;;17.30;99.90;;;;;;5031405;28;20413;-69
2022/07/07 11:16:15;;;;;;;3.53;3.23;;;17.40;99.90;;;;;;5030142;28;20552;-69
2022/07/07 11:18:54;;;;;;;3.30;3.10;;;17.50;99.90;;;;;;5032291;28;20511;-70
2022/07/07 11:21:43;;;;;;;3.07;2.87;;;17.50;99.90;;;;;;5031619;28;20422;-69
2022/07/07 11:24:16;;;;;;;2.60;2.40;;;17.20;99.90;;;;;;5031860;28;20507;-68
2022/07/07 11:26:42;;;;;;;3.77;3.47;;;17.50;99.90;;;;;;5031685;28;20510;-70
2022/07/07 11:29:11;;;;;;;3.27;3.00;;;17.30;99.90;;;;;;5031736;28;20418;-68
2022/07/07 11:31:36;;;;;;;2.83;2.63;;;17.30;99.90;;;;;;5032055;28;20203;-68
2022/07/07 11:34:02;;;;;;;3.87;3.50;;;17.30;99.90;;;;;;5031659;28;20491;-68
2022/07/07 11:36:29;;;;;;;3.20;3.00;;;17.60;99.90;;;;;;5034316;28;20754;-68
2022/07/07 11:39:01;;;;;;;2.83;2.63;;;17.70;99.90;;;;;;5035373;28;20171;-69
2022/07/07 11:41:44;;;;;;;3.60;3.30;;;17.90;99.90;;;;;;5035231;28;20412;-69
2022/07/07 11:44:23;;;;;;;3.53;3.17;;;17.60;99.90;;;;;;5035340;28;20412;-69
2022/07/07 11:46:50;;;;;;;2.97;2.67;;;17.60;99.90;;;;;;5033852;28;20772;-69
2022/07/07 11:49:18;;;;;;;3.43;2.87;;;17.60;99.90;;;;;;5034943;28;20413;-69
2022/07/07 11:51:48;;;;;;;5.30;3.73;;;17.40;99.90;;;;;;5034459;28;20506;-69
2022/07/07 11:54:13;;;;;;;2.83;2.63;;;17.80;99.90;;;;;;5034587;28;20409;-70
2022/07/07 11:56:39;;;;;;;3.17;2.87;;;17.90;99.90;;;;;;5034593;28;20453;-69
2022/07/07 11:59:07;;;;;;;3.90;3.60;;;17.90;99.90;;;;;;5034611;28;20221;-68
2022/07/07 12:01:37;;;;;;;3.53;3.33;;;17.90;99.90;;;;;;5034393;28;20198;-68
2022/07/07 12:04:23;;;;;;;3.27;2.90;;;18.00;99.90;;;;;;5034402;28;20440;-69
2022/07/07 12:06:50;;;;;;;3.43;3.23;;;18.00;99.90;;;;;;5034246;28;20437;-68
2022/07/07 12:09:16;;;;;;;3.07;2.87;;;18.10;99.90;;;;;;5034572;28;20418;-68
2022/07/07 12:11:43;;;;;;;3.13;2.83;;;18.30;99.90;;;;;;5034547;28;20775;-69
2022/07/07 12:14:12;;;;;;;2.80;2.60;;;18.80;99.90;;;;;;5034320;28;20407;-69
2022/07/07 12:16:46;;;;;;;4.80;3.30;;;18.80;99.90;;;;;;5034167;28;20994;-69
2022/07/07 12:19:12;;;;;;;2.87;2.67;;;18.70;99.90;;;;;;5034561;28;20415;-69
2022/07/07 12:21:50;;;;;;;3.10;2.90;;;19.00;99.90;;;;;;5034239;28;20881;-69
2022/07/07 12:24:23;;;;;;;3.00;2.70;;;19.00;99.90;;;;;;5034665;28;20434;-69
2022/07/07 12:26:51;;;;;;;2.70;2.43;;;19.20;99.90;;;;;;5034408;28;20444;-69
2022/07/07 12:29:22;;;;;;;2.80;2.60;;;19.50;99.90;;;;;;5033711;28;20823;-69
2022/07/07 12:31:49;;;;;;;2.50;2.30;;;19.30;99.90;;;;;;5033328;28;20406;-69
2022/07/07 12:34:22;;;;;;;2.90;2.70;;;19.90;99.90;;;;;;5033315;28;20722;-69
2022/07/07 12:36:49;;;;;;;3.73;2.90;;;19.90;99.90;;;;;;5033009;28;20820;-69
2022/07/07 12:39:14;;;;;;;3.40;3.10;;;20.00;99.90;;;;;;5033851;28;20828;-69
2022/07/07 12:41:42;;;;;;;3.27;2.97;;;20.10;99.90;;;;;;5034803;28;20436;-69
2022/07/07 12:44:15;;;;;;;3.00;2.63;;;20.10;99.90;;;;;;5035001;28;20169;-69
2022/07/07 12:46:41;;;;;;;2.17;1.97;;;19.80;99.90;;;;;;5032751;28;20439;-69
2022/07/07 12:49:07;;;;;;;3.17;2.37;;;19.10;99.90;;;;;;5033553;28;20782;-69
2022/07/07 12:51:33;;;;;;;3.37;3.07;;;19.20;99.90;;;;;;5033455;28;20953;-69